sensor_id;sensor_type;location;lat;lon;timestamp;temperature;humidity
12720;DHT22;6424;48.520;11.228;2022-11-11T00:02:01;4.10;99.90
12720;DHT22;6424;48.520;11.228;2022-11-11T00:04:42;4.10;99.90
12720;DHT22;6424;48.520;11.228;2022-11-11T00:07:23;4.00;99.90
12720;DHT22;6424;48.520;11.228;2022-11-11T00:10:04;4.00;99.90
12720;DHT22;6424;48.520;11.228;2022-11-11T00:12:45;3.90;99.90
12720;DHT22;6424;48.520;11.228;2022-11-11T00:15:27;3.80;99.90
12720;DHT22;6424;48.520;11.228;2022-11-11T00:18:10;3.80;99.90
12720;DHT22;6424;48.520;11.228;2022-11-11T00:21:13;3.80;99.90
12720;DHT22;6424;48.520;11.228;2022-11-11T00:24:26;3.70;99.90
12720;DHT22;6424;48.520;11.228;2022-11-11T00:27:26;3.70;99.90
12720;DHT22;6424;48.520;11.228;2022-11-11T00:30:07;3.70;99.90
12720;DHT22;6424;48.520;11.228;2022-11-11T00:32:48;3.60;99.90
12720;DHT22;6424;48.520;11.228;2022-11-11T00:35:29;3.60;99.90
12720;DHT22;6424;48.520;11.228;2022-11-11T00:38:28;3.60;99.90
12720;DHT22;6424;48.520;11.228;2022-11-11T00:41:29;3.60;99.90
12720;DHT22;6424;48.520;11.228;2022-11-11T00:44:09;3.60;99.90
12720;DHT22;6424;48.520;11.228;2022-11-11T00:46:50;3.60;99.90
12720;DHT22;6424;48.520;11.228;2022-11-11T00:49:49;3.50;99.90
12720;DHT22;6424;48.520;11.228;2022-11-11T00:52:49;3.60;99.90
12720;DHT22;6424;48.520;11.228;2022-11-11T00:55:29;3.50;99.90
12720;DHT22;6424;48.520;11.228;2022-11-11T00:58:10;3.50;99.90
12720;DHT22;6424;48.520;11.228;2022-11-11T01:00:51;3.50;99.90
12720;DHT22;6424;48.520;11.228;2022-11-11T01:03:34;3.50;99.90
12720;DHT22;6424;48.520;11.228;2022-11-11T01:06:15;3.40;99.90
12720;DHT22;6424;48.520;11.228;2022-11-11T01:08:56;3.40;99.90
12720;DHT22;6424;48.520;11.228;2022-11-11T01:11:37;3.40;99.90
12720;DHT22;6424;48.520;11.228;2022-11-11T01:14:17;3.40;99.90
12720;DHT22;6424;48.520;11.228;2022-11-11T01:16:43;3.30;99.90
12720;DHT22;6424;48.520;11.228;2022-11-11T01:19:24;3.30;99.90
12720;DHT22;6424;48.520;11.228;2022-11-11T01:22:05;3.30;99.90
12720;DHT22;6424;48.520;11.228;2022-11-11T01:24:45;3.20;99.90
12720;DHT22;6424;48.520;11.228;2022-11-11T01:27:26;3.20;99.90
12720;DHT22;6424;48.520;11.228;2022-11-11T01:30:07;3.20;99.90
12720;DHT22;6424;48.520;11.228;2022-11-11T01:32:48;3.20;99.90
12720;DHT22;6424;48.520;11.228;2022-11-11T01:35:29;3.20;99.90
12720;DHT22;6424;48.520;11.228;2022-11-11T01:38:10;3.20;99.90
12720;DHT22;6424;48.520;11.228;2022-11-11T01:40:51;3.10;99.90
12720;DHT22;6424;48.520;11.228;2022-11-11T01:43:31;3.10;99.90
12720;DHT22;6424;48.520;11.228;2022-11-11T01:49:22;3.00;99.90
12720;DHT22;6424;48.520;11.228;2022-11-11T01:57:39;2.90;99.90
12720;DHT22;6424;48.520;11.228;2022-11-11T02:00:23;2.90;99.90
12720;DHT22;6424;48.520;11.228;2022-11-11T02:03:06;2.90;99.90
12720;DHT22;6424;48.520;11.228;2022-11-11T02:05:48;2.90;99.90
12720;DHT22;6424;48.520;11.228;2022-11-11T02:08:32;2.90;99.90
12720;DHT22;6424;48.520;11.228;2022-11-11T02:11:16;2.90;99.90
12720;DHT22;6424;48.520;11.228;2022-11-11T02:14:17;2.90;99.90
12720;DHT22;6424;48.520;11.228;2022-11-11T02:17:16;2.90;99.90
12720;DHT22;6424;48.520;11.228;2022-11-11T02:19:59;2.90;99.90
12720;DHT22;6424;48.520;11.228;2022-11-11T02:22:43;3.00;99.90
12720;DHT22;6424;48.520;11.228;2022-11-11T02:25:28;3.00;99.90
12720;DHT22;6424;48.520;11.228;2022-11-11T02:28:11;2.90;99.90
12720;DHT22;6424;48.520;11.228;2022-11-11T02:30:52;2.90;99.90
12720;DHT22;6424;48.520;11.228;2022-11-11T02:33:33;2.90;99.90
12720;DHT22;6424;48.520;11.228;2022-11-11T02:36:15;2.90;99.90
12720;DHT22;6424;48.520;11.228;2022-11-11T02:38:56;2.90;99.90
12720;DHT22;6424;48.520;11.228;2022-11-11T02:41:36;2.80;99.90
12720;DHT22;6424;48.520;11.228;2022-11-11T02:44:36;2.80;99.90
12720;DHT22;6424;48.520;11.228;2022-11-11T02:47:19;2.80;99.90
12720;DHT22;6424;48.520;11.228;2022-11-11T02:50:00;2.80;99.90
12720;DHT22;6424;48.520;11.228;2022-11-11T02:52:41;2.70;99.90
12720;DHT22;6424;48.520;11.228;2022-11-11T02:55:22;2.70;99.90
12720;DHT22;6424;48.520;11.228;2022-11-11T02:58:03;2.70;99.90
12720;DHT22;6424;48.520;11.228;2022-11-11T03:00:44;2.60;99.90
12720;DHT22;6424;48.520;11.228;2022-11-11T03:03:24;2.60;99.90
12720;DHT22;6424;48.520;11.228;2022-11-11T03:06:05;2.60;99.90
12720;DHT22;6424;48.520;11.228;2022-11-11T03:08:46;2.60;99.90
12720;DHT22;6424;48.520;11.228;2022-11-11T03:11:27;2.60;99.90
12720;DHT22;6424;48.520;11.228;2022-11-11T03:14:08;2.60;99.90
12720;DHT22;6424;48.520;11.228;2022-11-11T03:16:49;2.60;99.90
12720;DHT22;6424;48.520;11.228;2022-11-11T03:19:48;2.60;99.90
12720;DHT22;6424;48.520;11.228;2022-11-11T03:22:29;2.60;99.90
12720;DHT22;6424;48.520;11.228;2022-11-11T03:25:10;2.60;99.90
12720;DHT22;6424;48.520;11.228;2022-11-11T03:28:15;2.60;99.90
12720;DHT22;6424;48.520;11.228;2022-11-11T03:30:56;2.60;99.90
12720;DHT22;6424;48.520;11.228;2022-11-11T03:33:38;2.60;99.90
12720;DHT22;6424;48.520;11.228;2022-11-11T03:36:18;2.60;99.90
12720;DHT22;6424;48.520;11.228;2022-11-11T03:38:59;2.50;99.90
12720;DHT22;6424;48.520;11.228;2022-11-11T03:41:40;2.60;99.90
12720;DHT22;6424;48.520;11.228;2022-11-11T03:44:21;2.50;99.90
12720;DHT22;6424;48.520;11.228;2022-11-11T03:47:01;2.50;99.90
12720;DHT22;6424;48.520;11.228;2022-11-11T03:49:42;2.50;99.90
12720;DHT22;6424;48.520;11.228;2022-11-11T03:52:25;2.50;99.90
12720;DHT22;6424;48.520;11.228;2022-11-11T03:55:06;2.40;99.90
12720;DHT22;6424;48.520;11.228;2022-11-11T03:57:32;2.40;99.90
12720;DHT22;6424;48.520;11.228;2022-11-11T04:00:15;2.40;99.90
12720;DHT22;6424;48.520;11.228;2022-11-11T04:03:16;2.30;99.90
12720;DHT22;6424;48.520;11.228;2022-11-11T04:06:16;2.30;99.90
12720;DHT22;6424;48.520;11.228;2022-11-11T04:09:15;2.30;99.90
12720;DHT22;6424;48.520;11.228;2022-11-11T04:11:59;2.30;99.90
12720;DHT22;6424;48.520;11.228;2022-11-11T04:14:40;2.30;99.90
12720;DHT22;6424;48.520;11.228;2022-11-11T04:17:39;2.30;99.90
12720;DHT22;6424;48.520;11.228;2022-11-11T04:20:20;2.20;99.90
12720;DHT22;6424;48.520;11.228;2022-11-11T04:23:19;2.20;99.90
12720;DHT22;6424;48.520;11.228;2022-11-11T04:26:00;2.20;99.90
12720;DHT22;6424;48.520;11.228;2022-11-11T04:28:41;2.20;99.90
12720;DHT22;6424;48.520;11.228;2022-11-11T04:31:40;2.20;99.90
12720;DHT22;6424;48.520;11.228;2022-11-11T04:34:26;2.20;99.90
12720;DHT22;6424;48.520;11.228;2022-11-11T04:37:07;2.20;99.90
12720;DHT22;6424;48.520;11.228;2022-11-11T04:39:48;2.20;99.90
12720;DHT22;6424;48.520;11.228;2022-11-11T04:42:47;2.10;99.90
12720;DHT22;6424;48.520;11.228;2022-11-11T04:45:28;2.10;99.90
12720;DHT22;6424;48.520;11.228;2022-11-11T04:48:10;2.10;99.90
12720;DHT22;6424;48.520;11.228;2022-11-11T04:50:52;2.00;99.90
12720;DHT22;6424;48.520;11.228;2022-11-11T04:53:33;2.00;99.90
12720;DHT22;6424;48.520;11.228;2022-11-11T04:56:14;2.00;99.90
12720;DHT22;6424;48.520;11.228;2022-11-11T04:59:13;1.90;99.90
12720;DHT22;6424;48.520;11.228;2022-11-11T05:01:42;1.90;99.90
12720;DHT22;6424;48.520;11.228;2022-11-11T05:04:41;1.90;99.90
12720;DHT22;6424;48.520;11.228;2022-11-11T05:07:22;1.80;99.90
12720;DHT22;6424;48.520;11.228;2022-11-11T05:10:07;1.80;99.90
12720;DHT22;6424;48.520;11.228;2022-11-11T05:12:47;1.80;99.90
12720;DHT22;6424;48.520;11.228;2022-11-11T05:15:13;1.80;99.90
12720;DHT22;6424;48.520;11.228;2022-11-11T05:18:13;1.80;99.90
12720;DHT22;6424;48.520;11.228;2022-11-11T05:20:58;1.80;99.90
12720;DHT22;6424;48.520;11.228;2022-11-11T05:23:57;1.80;99.90
12720;DHT22;6424;48.520;11.228;2022-11-11T05:26:56;1.80;99.90
12720;DHT22;6424;48.520;11.228;2022-11-11T05:29:37;1.80;99.90
12720;DHT22;6424;48.520;11.228;2022-11-11T05:32:03;1.80;99.90
12720;DHT22;6424;48.520;11.228;2022-11-11T05:34:44;1.80;99.90
12720;DHT22;6424;48.520;11.228;2022-11-11T05:37:25;1.80;99.90
12720;DHT22;6424;48.520;11.228;2022-11-11T05:40:07;1.80;99.90
12720;DHT22;6424;48.520;11.228;2022-11-11T05:42:48;1.80;99.90
12720;DHT22;6424;48.520;11.228;2022-11-11T05:45:29;1.80;99.90
12720;DHT22;6424;48.520;11.228;2022-11-11T05:48:09;1.70;99.90
12720;DHT22;6424;48.520;11.228;2022-11-11T05:50:35;1.70;99.90
12720;DHT22;6424;48.520;11.228;2022-11-11T05:53:20;1.60;99.90
12720;DHT22;6424;48.520;11.228;2022-11-11T05:56:03;1.60;99.90
12720;DHT22;6424;48.520;11.228;2022-11-11T05:58:44;1.50;99.90
12720;DHT22;6424;48.520;11.228;2022-11-11T06:01:25;1.40;99.90
12720;DHT22;6424;48.520;11.228;2022-11-11T06:04:06;1.30;99.90
12720;DHT22;6424;48.520;11.228;2022-11-11T06:06:33;1.30;99.90
12720;DHT22;6424;48.520;11.228;2022-11-11T06:09:14;1.30;99.90
12720;DHT22;6424;48.520;11.228;2022-11-11T06:11:55;1.20;99.90
12720;DHT22;6424;48.520;11.228;2022-11-11T06:14:36;1.30;99.90
12720;DHT22;6424;48.520;11.228;2022-11-11T06:17:17;1.30;99.90
12720;DHT22;6424;48.520;11.228;2022-11-11T06:19:42;1.30;99.90
12720;DHT22;6424;48.520;11.228;2022-11-11T06:22:08;1.30;99.90
12720;DHT22;6424;48.520;11.228;2022-11-11T06:24:34;1.30;99.90
12720;DHT22;6424;48.520;11.228;2022-11-11T06:27:15;1.30;99.90
12720;DHT22;6424;48.520;11.228;2022-11-11T06:29:55;1.40;99.90
12720;DHT22;6424;48.520;11.228;2022-11-11T06:32:36;1.40;99.90
12720;DHT22;6424;48.520;11.228;2022-11-11T06:35:02;1.50;99.90
12720;DHT22;6424;48.520;11.228;2022-11-11T06:37:43;1.50;99.90
12720;DHT22;6424;48.520;11.228;2022-11-11T06:40:24;1.50;99.90
12720;DHT22;6424;48.520;11.228;2022-11-11T06:43:04;1.60;99.90
12720;DHT22;6424;48.520;11.228;2022-11-11T06:45:30;1.60;99.90
12720;DHT22;6424;48.520;11.228;2022-11-11T06:48:12;1.60;99.90
12720;DHT22;6424;48.520;11.228;2022-11-11T06:50:54;1.70;99.90
12720;DHT22;6424;48.520;11.228;2022-11-11T06:53:40;1.70;99.90
12720;DHT22;6424;48.520;11.228;2022-11-11T06:56:21;1.80;99.90
12720;DHT22;6424;48.520;11.228;2022-11-11T06:59:02;1.80;99.90
12720;DHT22;6424;48.520;11.228;2022-11-11T07:01:43;1.90;99.90
12720;DHT22;6424;48.520;11.228;2022-11-11T07:04:23;1.90;99.90
12720;DHT22;6424;48.520;11.228;2022-11-11T07:07:04;2.00;99.90
12720;DHT22;6424;48.520;11.228;2022-11-11T07:09:45;2.00;99.90
12720;DHT22;6424;48.520;11.228;2022-11-11T07:12:26;2.00;99.90
12720;DHT22;6424;48.520;11.228;2022-11-11T07:15:08;2.10;99.90
12720;DHT22;6424;48.520;11.228;2022-11-11T07:17:34;2.10;99.90
12720;DHT22;6424;48.520;11.228;2022-11-11T07:20:15;2.20;99.90
12720;DHT22;6424;48.520;11.228;2022-11-11T07:22:55;2.20;99.90
12720;DHT22;6424;48.520;11.228;2022-11-11T07:25:21;2.30;99.90
12720;DHT22;6424;48.520;11.228;2022-11-11T07:28:02;2.40;99.90
12720;DHT22;6424;48.520;11.228;2022-11-11T07:30:43;2.40;99.90
12720;DHT22;6424;48.520;11.228;2022-11-11T07:33:24;2.50;99.90
12720;DHT22;6424;48.520;11.228;2022-11-11T07:36:05;2.60;99.90
12720;DHT22;6424;48.520;11.228;2022-11-11T07:38:46;2.60;99.90
12720;DHT22;6424;48.520;11.228;2022-11-11T07:41:26;2.60;99.90
12720;DHT22;6424;48.520;11.228;2022-11-11T07:44:07;2.70;99.90
12720;DHT22;6424;48.520;11.228;2022-11-11T07:46:48;2.70;99.90
12720;DHT22;6424;48.520;11.228;2022-11-11T07:49:29;2.80;99.90
12720;DHT22;6424;48.520;11.228;2022-11-11T07:52:09;2.90;99.90
12720;DHT22;6424;48.520;11.228;2022-11-11T07:54:50;2.90;99.90
12720;DHT22;6424;48.520;11.228;2022-11-11T07:57:31;3.00;99.90
12720;DHT22;6424;48.520;11.228;2022-11-11T08:00:12;3.20;99.90
12720;DHT22;6424;48.520;11.228;2022-11-11T08:02:53;3.30;99.90
12720;DHT22;6424;48.520;11.228;2022-11-11T08:05:34;3.40;99.90
12720;DHT22;6424;48.520;11.228;2022-11-11T08:08:15;3.50;99.90
12720;DHT22;6424;48.520;11.228;2022-11-11T08:10:55;3.70;99.90
12720;DHT22;6424;48.520;11.228;2022-11-11T08:13:36;3.80;99.90
12720;DHT22;6424;48.520;11.228;2022-11-11T08:16:20;3.90;99.90
12720;DHT22;6424;48.520;11.228;2022-11-11T08:19:00;4.10;99.90
12720;DHT22;6424;48.520;11.228;2022-11-11T08:21:41;4.30;99.90
12720;DHT22;6424;48.520;11.228;2022-11-11T08:24:22;4.50;99.90
12720;DHT22;6424;48.520;11.228;2022-11-11T08:26:48;4.60;99.90
12720;DHT22;6424;48.520;11.228;2022-11-11T08:29:14;4.80;99.90
12720;DHT22;6424;48.520;11.228;2022-11-11T08:31:55;4.90;99.90
12720;DHT22;6424;48.520;11.228;2022-11-11T08:34:37;5.10;99.90
12720;DHT22;6424;48.520;11.228;2022-11-11T08:37:18;5.10;99.90
12720;DHT22;6424;48.520;11.228;2022-11-11T08:39:58;5.20;99.90
12720;DHT22;6424;48.520;11.228;2022-11-11T08:42:39;5.20;99.90
12720;DHT22;6424;48.520;11.228;2022-11-11T08:45:22;5.30;99.90
12720;DHT22;6424;48.520;11.228;2022-11-11T08:48:03;5.20;99.90
12720;DHT22;6424;48.520;11.228;2022-11-11T08:50:29;5.00;99.90
12720;DHT22;6424;48.520;11.228;2022-11-11T08:53:10;4.90;99.90
12720;DHT22;6424;48.520;11.228;2022-11-11T08:55:51;4.80;99.90
12720;DHT22;6424;48.520;11.228;2022-11-11T08:58:32;4.70;99.90
12720;DHT22;6424;48.520;11.228;2022-11-11T09:01:13;4.50;99.90
12720;DHT22;6424;48.520;11.228;2022-11-11T09:03:54;4.40;99.90
12720;DHT22;6424;48.520;11.228;2022-11-11T09:06:20;4.20;99.90
12720;DHT22;6424;48.520;11.228;2022-11-11T09:09:01;4.10;99.90
12720;DHT22;6424;48.520;11.228;2022-11-11T09:11:27;4.10;99.90
12720;DHT22;6424;48.520;11.228;2022-11-11T09:14:07;4.10;99.90
12720;DHT22;6424;48.520;11.228;2022-11-11T09:16:48;4.10;99.90
12720;DHT22;6424;48.520;11.228;2022-11-11T09:19:29;4.20;99.90
12720;DHT22;6424;48.520;11.228;2022-11-11T09:22:10;4.20;99.90
12720;DHT22;6424;48.520;11.228;2022-11-11T09:24:51;4.20;99.90
12720;DHT22;6424;48.520;11.228;2022-11-11T09:27:16;4.30;99.90
12720;DHT22;6424;48.520;11.228;2022-11-11T09:29:57;4.30;99.90
12720;DHT22;6424;48.520;11.228;2022-11-11T09:32:38;4.40;99.90
12720;DHT22;6424;48.520;11.228;2022-11-11T09:35:19;4.30;99.90
12720;DHT22;6424;48.520;11.228;2022-11-11T09:38:00;4.40;99.90
12720;DHT22;6424;48.520;11.228;2022-11-11T09:43:51;4.50;99.90
12720;DHT22;6424;48.520;11.228;2022-11-11T09:55:55;4.80;99.90
12720;DHT22;6424;48.520;11.228;2022-11-11T09:59:18;4.90;99.90
12720;DHT22;6424;48.520;11.228;2022-11-11T10:01:58;5.00;99.90
12720;DHT22;6424;48.520;11.228;2022-11-11T10:05:01;5.20;99.90
12720;DHT22;6424;48.520;11.228;2022-11-11T10:07:50;5.30;99.90
12720;DHT22;6424;48.520;11.228;2022-11-11T10:10:46;5.40;99.90
12720;DHT22;6424;48.520;11.228;2022-11-11T10:13:19;5.50;99.90
12720;DHT22;6424;48.520;11.228;2022-11-11T10:19:40;5.80;99.90
12720;DHT22;6424;48.520;11.228;2022-11-11T10:22:26;5.90;99.90
12720;DHT22;6424;48.520;11.228;2022-11-11T10:27:59;5.80;99.90
12720;DHT22;6424;48.520;11.228;2022-11-11T10:30:41;5.80;99.90
12720;DHT22;6424;48.520;11.228;2022-11-11T10:33:19;5.80;99.90
12720;DHT22;6424;48.520;11.228;2022-11-11T10:36:02;5.80;99.90
12720;DHT22;6424;48.520;11.228;2022-11-11T10:41:42;5.90;99.90
12720;DHT22;6424;48.520;11.228;2022-11-11T10:44:27;5.90;99.90
12720;DHT22;6424;48.520;11.228;2022-11-11T10:47:51;5.90;99.90
12720;DHT22;6424;48.520;11.228;2022-11-11T10:50:17;5.90;99.90
12720;DHT22;6424;48.520;11.228;2022-11-11T10:56:14;6.00;99.90
12720;DHT22;6424;48.520;11.228;2022-11-11T11:01:56;6.20;99.90
12720;DHT22;6424;48.520;11.228;2022-11-11T11:04:57;6.10;99.90
12720;DHT22;6424;48.520;11.228;2022-11-11T11:07:46;6.10;99.90
12720;DHT22;6424;48.520;11.228;2022-11-11T11:10:47;6.00;99.90
12720;DHT22;6424;48.520;11.228;2022-11-11T11:13:39;6.10;99.90
12720;DHT22;6424;48.520;11.228;2022-11-11T11:16:27;6.10;99.90
12720;DHT22;6424;48.520;11.228;2022-11-11T11:22:02;6.20;99.90
12720;DHT22;6424;48.520;11.228;2022-11-11T11:24:43;6.10;99.90
12720;DHT22;6424;48.520;11.228;2022-11-11T11:27:27;6.00;99.90
12720;DHT22;6424;48.520;11.228;2022-11-11T11:30:20;6.00;99.90
12720;DHT22;6424;48.520;11.228;2022-11-11T11:33:06;6.10;99.90
12720;DHT22;6424;48.520;11.228;2022-11-11T11:35:47;6.10;99.90
12720;DHT22;6424;48.520;11.228;2022-11-11T11:38:45;6.30;99.90
12720;DHT22;6424;48.520;11.228;2022-11-11T11:41:12;6.30;99.90
12720;DHT22;6424;48.520;11.228;2022-11-11T11:43:53;6.30;99.90
12720;DHT22;6424;48.520;11.228;2022-11-11T11:46:38;6.20;99.90
12720;DHT22;6424;48.520;11.228;2022-11-11T11:52:20;6.20;99.90
12720;DHT22;6424;48.520;11.228;2022-11-11T11:57:54;6.40;99.90
12720;DHT22;6424;48.520;11.228;2022-11-11T12:00:42;6.50;99.90
12720;DHT22;6424;48.520;11.228;2022-11-11T12:06:20;6.60;99.90
12720;DHT22;6424;48.520;11.228;2022-11-11T12:09:28;6.60;99.90
12720;DHT22;6424;48.520;11.228;2022-11-11T12:15:38;6.50;99.90
12720;DHT22;6424;48.520;11.228;2022-11-11T12:18:54;6.50;99.90
12720;DHT22;6424;48.520;11.228;2022-11-11T12:30:13;6.60;99.90
12720;DHT22;6424;48.520;11.228;2022-11-11T12:36:05;6.60;99.90
12720;DHT22;6424;48.520;11.228;2022-11-11T12:38:57;6.60;99.90
12720;DHT22;6424;48.520;11.228;2022-11-11T12:47:36;6.90;99.90
12720;DHT22;6424;48.520;11.228;2022-11-11T12:50:25;7.00;99.90
12720;DHT22;6424;48.520;11.228;2022-11-11T12:53:32;7.00;99.90
12720;DHT22;6424;48.520;11.228;2022-11-11T13:00:08;7.00;99.90
12720;DHT22;6424;48.520;11.228;2022-11-11T13:05:59;7.10;99.90
12720;DHT22;6424;48.520;11.228;2022-11-11T13:08:55;7.20;99.90
12720;DHT22;6424;48.520;11.228;2022-11-11T13:17:30;6.90;99.90
12720;DHT22;6424;48.520;11.228;2022-11-11T13:23:01;7.10;99.90
12720;DHT22;6424;48.520;11.228;2022-11-11T13:25:30;7.20;99.90
12720;DHT22;6424;48.520;11.228;2022-11-11T13:31:10;7.40;99.90
12720;DHT22;6424;48.520;11.228;2022-11-11T13:33:56;7.50;99.90
12720;DHT22;6424;48.520;11.228;2022-11-11T13:36:45;7.60;99.90
12720;DHT22;6424;48.520;11.228;2022-11-11T13:39:33;7.70;99.90
12720;DHT22;6424;48.520;11.228;2022-11-11T13:42:23;7.80;99.90
12720;DHT22;6424;48.520;11.228;2022-11-11T13:45:12;7.80;99.90
12720;DHT22;6424;48.520;11.228;2022-11-11T13:47:59;7.80;99.90
12720;DHT22;6424;48.520;11.228;2022-11-11T13:50:41;7.90;99.90
12720;DHT22;6424;48.520;11.228;2022-11-11T13:53:27;7.90;99.90
12720;DHT22;6424;48.520;11.228;2022-11-11T13:56:10;7.90;99.90
12720;DHT22;6424;48.520;11.228;2022-11-11T13:58:39;7.80;99.90
12720;DHT22;6424;48.520;11.228;2022-11-11T14:01:21;7.80;99.90
12720;DHT22;6424;48.520;11.228;2022-11-11T14:04:05;7.80;99.90
12720;DHT22;6424;48.520;11.228;2022-11-11T14:06:51;7.90;99.90
12720;DHT22;6424;48.520;11.228;2022-11-11T14:12:35;8.00;99.90
12720;DHT22;6424;48.520;11.228;2022-11-11T14:15:36;7.90;99.90
12720;DHT22;6424;48.520;11.228;2022-11-11T14:20:58;7.80;99.90
12720;DHT22;6424;48.520;11.228;2022-11-11T14:23:42;7.80;99.90
12720;DHT22;6424;48.520;11.228;2022-11-11T14:26:25;7.70;99.90
12720;DHT22;6424;48.520;11.228;2022-11-11T14:29:16;7.60;99.90
12720;DHT22;6424;48.520;11.228;2022-11-11T14:40:28;7.70;99.90
12720;DHT22;6424;48.520;11.228;2022-11-11T14:46:12;7.70;99.90
12720;DHT22;6424;48.520;11.228;2022-11-11T14:48:53;7.60;99.90
12720;DHT22;6424;48.520;11.228;2022-11-11T14:51:40;7.50;99.90
12720;DHT22;6424;48.520;11.228;2022-11-11T14:54:46;7.40;99.90
12720;DHT22;6424;48.520;11.228;2022-11-11T15:00:50;7.40;99.90
12720;DHT22;6424;48.520;11.228;2022-11-11T15:20:47;7.10;99.90
12720;DHT22;6424;48.520;11.228;2022-11-11T15:26:58;7.10;99.90
12720;DHT22;6424;48.520;11.228;2022-11-11T15:35:45;6.90;99.90
12720;DHT22;6424;48.520;11.228;2022-11-11T15:38:17;6.90;99.90
12720;DHT22;6424;48.520;11.228;2022-11-11T15:40:59;6.80;99.90
12720;DHT22;6424;48.520;11.228;2022-11-11T15:43:41;6.80;99.90
12720;DHT22;6424;48.520;11.228;2022-11-11T15:46:27;6.80;99.90
12720;DHT22;6424;48.520;11.228;2022-11-11T15:49:35;6.70;99.90
12720;DHT22;6424;48.520;11.228;2022-11-11T15:52:25;6.70;99.90
12720;DHT22;6424;48.520;11.228;2022-11-11T15:54:52;6.60;99.90
12720;DHT22;6424;48.520;11.228;2022-11-11T15:57:34;6.60;99.90
12720;DHT22;6424;48.520;11.228;2022-11-11T16:03:05;6.70;99.90
12720;DHT22;6424;48.520;11.228;2022-11-11T16:05:50;6.60;99.90
12720;DHT22;6424;48.520;11.228;2022-11-11T16:08:31;6.60;99.90
12720;DHT22;6424;48.520;11.228;2022-11-11T16:10:59;6.60;99.90
12720;DHT22;6424;48.520;11.228;2022-11-11T16:13:55;6.60;99.90
12720;DHT22;6424;48.520;11.228;2022-11-11T16:16:39;6.60;99.90
12720;DHT22;6424;48.520;11.228;2022-11-11T16:19:41;6.60;99.90
12720;DHT22;6424;48.520;11.228;2022-11-11T16:22:16;6.50;99.90
12720;DHT22;6424;48.520;11.228;2022-11-11T16:24:59;6.50;99.90
12720;DHT22;6424;48.520;11.228;2022-11-11T16:27:43;6.50;99.90
12720;DHT22;6424;48.520;11.228;2022-11-11T16:30:36;6.50;99.90
12720;DHT22;6424;48.520;11.228;2022-11-11T16:36:10;6.40;99.90
12720;DHT22;6424;48.520;11.228;2022-11-11T16:38:51;6.40;99.90
12720;DHT22;6424;48.520;11.228;2022-11-11T16:41:32;6.30;99.90
12720;DHT22;6424;48.520;11.228;2022-11-11T16:44:33;6.20;99.90
12720;DHT22;6424;48.520;11.228;2022-11-11T16:50:18;6.20;99.90
12720;DHT22;6424;48.520;11.228;2022-11-11T16:55:37;6.10;99.90
12720;DHT22;6424;48.520;11.228;2022-11-11T16:58:20;6.00;99.90
12720;DHT22;6424;48.520;11.228;2022-11-11T17:01:02;6.00;99.90
12720;DHT22;6424;48.520;11.228;2022-11-11T17:03:58;5.90;99.90
12720;DHT22;6424;48.520;11.228;2022-11-11T17:07:02;5.90;99.90
12720;DHT22;6424;48.520;11.228;2022-11-11T17:09:43;5.80;99.90
12720;DHT22;6424;48.520;11.228;2022-11-11T17:12:31;5.80;99.90
12720;DHT22;6424;48.520;11.228;2022-11-11T17:15:13;5.80;99.90
12720;DHT22;6424;48.520;11.228;2022-11-11T17:17:54;5.90;99.90
12720;DHT22;6424;48.520;11.228;2022-11-11T17:20:35;5.80;99.90
12720;DHT22;6424;48.520;11.228;2022-11-11T17:23:16;5.80;99.90
12720;DHT22;6424;48.520;11.228;2022-11-11T17:25:58;5.80;99.90
12720;DHT22;6424;48.520;11.228;2022-11-11T17:28:40;5.80;99.90
12720;DHT22;6424;48.520;11.228;2022-11-11T17:31:21;5.80;99.90
12720;DHT22;6424;48.520;11.228;2022-11-11T17:34:10;5.80;99.90
12720;DHT22;6424;48.520;11.228;2022-11-11T17:36:50;5.80;99.90
12720;DHT22;6424;48.520;11.228;2022-11-11T17:39:31;5.70;99.90
12720;DHT22;6424;48.520;11.228;2022-11-11T17:42:12;5.70;99.90
12720;DHT22;6424;48.520;11.228;2022-11-11T17:44:53;5.70;99.90
12720;DHT22;6424;48.520;11.228;2022-11-11T17:47:34;5.60;99.90
12720;DHT22;6424;48.520;11.228;2022-11-11T17:50:15;5.60;99.90
12720;DHT22;6424;48.520;11.228;2022-11-11T17:52:55;5.60;99.90
12720;DHT22;6424;48.520;11.228;2022-11-11T17:55:36;5.60;99.90
12720;DHT22;6424;48.520;11.228;2022-11-11T17:58:17;5.60;99.90
12720;DHT22;6424;48.520;11.228;2022-11-11T18:01:09;5.60;99.90
12720;DHT22;6424;48.520;11.228;2022-11-11T18:03:55;5.60;99.90
12720;DHT22;6424;48.520;11.228;2022-11-11T18:06:36;5.50;99.90
12720;DHT22;6424;48.520;11.228;2022-11-11T18:09:17;5.50;99.90
12720;DHT22;6424;48.520;11.228;2022-11-11T18:11:58;5.50;99.90
12720;DHT22;6424;48.520;11.228;2022-11-11T18:14:39;5.50;99.90
12720;DHT22;6424;48.520;11.228;2022-11-11T18:17:20;5.50;99.90
12720;DHT22;6424;48.520;11.228;2022-11-11T18:20:00;5.50;99.90
12720;DHT22;6424;48.520;11.228;2022-11-11T18:22:41;5.50;99.90
12720;DHT22;6424;48.520;11.228;2022-11-11T18:25:22;5.50;99.90
12720;DHT22;6424;48.520;11.228;2022-11-11T18:28:03;5.50;99.90
12720;DHT22;6424;48.520;11.228;2022-11-11T18:30:44;5.50;99.90
12720;DHT22;6424;48.520;11.228;2022-11-11T18:33:10;5.40;99.90
12720;DHT22;6424;48.520;11.228;2022-11-11T18:35:50;5.40;99.90
12720;DHT22;6424;48.520;11.228;2022-11-11T18:38:31;5.40;99.90
12720;DHT22;6424;48.520;11.228;2022-11-11T18:43:54;5.40;99.90
12720;DHT22;6424;48.520;11.228;2022-11-11T18:46:37;5.40;99.90
12720;DHT22;6424;48.520;11.228;2022-11-11T18:49:18;5.40;99.90
12720;DHT22;6424;48.520;11.228;2022-11-11T18:51:59;5.30;99.90
12720;DHT22;6424;48.520;11.228;2022-11-11T18:54:39;5.40;99.90
12720;DHT22;6424;48.520;11.228;2022-11-11T18:57:20;5.30;99.90
12720;DHT22;6424;48.520;11.228;2022-11-11T19:00:02;5.30;99.90
12720;DHT22;6424;48.520;11.228;2022-11-11T19:02:43;5.30;99.90
12720;DHT22;6424;48.520;11.228;2022-11-11T19:05:23;5.30;99.90
12720;DHT22;6424;48.520;11.228;2022-11-11T19:08:04;5.20;99.90
12720;DHT22;6424;48.520;11.228;2022-11-11T19:10:45;5.10;99.90
12720;DHT22;6424;48.520;11.228;2022-11-11T19:13:11;5.10;99.90
12720;DHT22;6424;48.520;11.228;2022-11-11T19:15:52;5.10;99.90
12720;DHT22;6424;48.520;11.228;2022-11-11T19:18:18;5.10;99.90
12720;DHT22;6424;48.520;11.228;2022-11-11T19:21:08;5.10;99.90
12720;DHT22;6424;48.520;11.228;2022-11-11T19:23:35;5.10;99.90
12720;DHT22;6424;48.520;11.228;2022-11-11T19:26:18;5.00;99.90
12720;DHT22;6424;48.520;11.228;2022-11-11T19:29:00;4.90;99.90
12720;DHT22;6424;48.520;11.228;2022-11-11T19:31:41;4.80;99.90
12720;DHT22;6424;48.520;11.228;2022-11-11T19:34:22;4.80;99.90
12720;DHT22;6424;48.520;11.228;2022-11-11T19:37:03;4.80;99.90
12720;DHT22;6424;48.520;11.228;2022-11-11T19:39:48;4.80;99.90
12720;DHT22;6424;48.520;11.228;2022-11-11T19:42:29;4.70;99.90
12720;DHT22;6424;48.520;11.228;2022-11-11T19:44:55;4.80;99.90
12720;DHT22;6424;48.520;11.228;2022-11-11T19:47:37;4.80;99.90
12720;DHT22;6424;48.520;11.228;2022-11-11T19:50:17;4.80;99.90
12720;DHT22;6424;48.520;11.228;2022-11-11T19:52:58;4.80;99.90
12720;DHT22;6424;48.520;11.228;2022-11-11T19:55:39;4.90;99.90